Time;durP1;ratioP1;P1;durP2;ratioP2;P2;SDS_P1;SDS_P2;PMS_P1;PMS_P2;Temp;Humidity;BMP_temperature;BMP_pressure;BME280_temperature;BME280_humidity;BME280_pressure;Samples;Min_cycle;Max_cycle;Signal;HPM_P1;HPM_P2
2022/11/30 00:00:22;;;;;;;147.80;49.75;;;;;;;-0.91;100.00;100077.31;8426040;28;20448;-75
2022/11/30 00:04:42;;;;;;;155.57;51.17;;;;;;;-0.94;100.00;100076.88;8426344;28;20052;-74
2022/11/30 00:08:44;;;;;;;154.70;49.65;;;;;;;-0.99;100.00;100079.34;8425885;28;20048;-73
2022/11/30 00:12:44;;;;;;;152.60;53.13;;;;;;;-1.03;100.00;100078.16;8373191;28;20568;-74
2022/11/30 00:16:46;;;;;;;151.93;51.35;;;;;;;-1.02;100.00;100074.50;8413425;28;20431;-73
2022/11/30 00:20:47;;;;;;;149.65;50.92;;;;;;;-1.04;100.00;100087.13;8425945;28;20414;-74
2022/11/30 00:24:47;;;;;;;153.18;51.45;;;;;;;-1.10;100.00;100082.66;8425998;28;20052;-73
2022/11/30 00:28:49;;;;;;;152.82;50.30;;;;;;;-1.06;100.00;100097.16;8424939;28;20101;-74
2022/11/30 00:32:55;;;;;;;157.57;52.30;;;;;;;-1.14;100.00;100097.34;8425090;28;20059;-73
2022/11/30 00:36:56;;;;;;;156.32;50.17;;;;;;;-1.18;100.00;100093.50;8412272;28;20047;-74
2022/11/30 00:40:58;;;;;;;160.68;51.00;;;;;;;-1.27;100.00;100102.72;8424929;28;20516;-74
2022/11/30 00:44:59;;;;;;;167.63;54.30;;;;;;;-1.27;100.00;100100.06;8425400;28;20087;-73
2022/11/30 00:48:59;;;;;;;159.05;52.75;;;;;;;-1.32;100.00;100101.47;8425281;28;20044;-74
2022/11/30 00:53:00;;;;;;;159.48;51.42;;;;;;;-1.35;100.00;100091.28;8420494;28;20125;-74
2022/11/30 00:57:01;;;;;;;163.07;51.25;;;;;;;-1.40;100.00;100093.75;8419142;28;20045;-74
2022/11/30 01:01:02;;;;;;;172.70;54.67;;;;;;;-1.44;100.00;100097.84;8381539;28;20460;-74
2022/11/30 01:05:03;;;;;;;170.68;54.67;;;;;;;-1.44;100.00;100092.53;8428153;28;20048;-74
2022/11/30 01:09:05;;;;;;;164.20;51.63;;;;;;;-1.43;100.00;100102.09;8431620;28;20059;-74
2022/11/30 01:13:06;;;;;;;178.57;54.45;;;;;;;-1.42;100.00;100101.09;8395269;28;20458;-74
2022/11/30 01:17:07;;;;;;;177.25;52.70;;;;;;;-1.44;100.00;100097.84;8430488;28;20044;-74
2022/11/30 01:21:12;;;;;;;178.75;54.25;;;;;;;-1.42;100.00;100098.44;8430796;28;20113;-74
2022/11/30 01:25:13;;;;;;;170.60;54.00;;;;;;;-1.37;100.00;100106.56;8431151;28;20063;-74
2022/11/30 01:29:14;;;;;;;172.00;53.97;;;;;;;-1.37;100.00;100109.22;8429729;28;20391;-74
2022/11/30 01:33:15;;;;;;;174.63;54.50;;;;;;;-1.40;100.00;100109.66;8430616;28;20523;-74
2022/11/30 01:37:16;;;;;;;173.65;55.90;;;;;;;-1.42;100.00;100111.69;8429942;28;20051;-74
2022/11/30 01:41:29;;;;;;;173.88;53.83;;;;;;;-1.39;100.00;100116.59;8430674;28;20067;-74
2022/11/30 01:45:33;;;;;;;178.10;52.78;;;;;;;-1.37;100.00;100109.22;8430191;28;20193;-74
2022/11/30 01:49:43;;;;;;;173.25;53.35;;;;;;;-1.36;100.00;100121.47;8369742;28;20055;-74
2022/11/30 01:53:44;;;;;;;181.10;52.90;;;;;;;-1.29;100.00;100122.28;8429257;28;20405;-75
2022/11/30 01:57:52;;;;;;;189.90;52.85;;;;;;;-1.32;100.00;100129.81;8394210;28;20077;-75
2022/11/30 02:01:54;;;;;;;164.95;50.30;;;;;;;-1.31;100.00;100124.31;8428661;28;20070;-75
2022/11/30 02:05:55;;;;;;;184.18;54.85;;;;;;;-1.31;100.00;100123.47;8429360;28;20056;-74
2022/11/30 02:09:56;;;;;;;179.80;53.97;;;;;;;-1.27;100.00;100120.22;8395216;28;20044;-74
2022/11/30 02:14:04;;;;;;;166.25;49.20;;;;;;;-1.25;100.00;100116.53;8371171;28;20433;-75
2022/11/30 02:18:12;;;;;;;177.40;50.75;;;;;;;-1.23;100.00;100109.22;8428152;28;20040;-74
2022/11/30 02:22:28;;;;;;;164.55;53.17;;;;;;;-1.27;100.00;100118.59;8411413;28;20039;-73
2022/11/30 02:26:38;;;;;;;188.52;58.60;;;;;;;-1.27;100.00;100118.59;8424126;28;20115;-74
2022/11/30 02:30:42;;;;;;;198.85;57.05;;;;;;;-1.29;100.00;100106.38;8424149;28;20047;-73
2022/11/30 02:34:44;;;;;;;208.30;55.75;;;;;;;-1.30;100.00;100112.69;8375196;28;20043;-74
2022/11/30 02:38:45;;;;;;;194.27;55.63;;;;;;;-1.33;100.00;100105.16;8410464;28;20490;-74
2022/11/30 02:42:50;;;;;;;229.57;55.63;;;;;;;-1.29;100.00;100116.97;8410216;28;20048;-74
2022/11/30 02:47:06;;;;;;;229.18;55.28;;;;;;;-1.30;100.00;100120.63;8408932;28;20395;-74
2022/11/30 02:51:10;;;;;;;201.32;55.55;;;;;;;-1.24;100.00;100112.88;8394093;28;20422;-74
2022/11/30 02:55:15;;;;;;;208.02;54.05;;;;;;;-1.29;100.00;100116.97;8409660;28;20055;-74
2022/11/30 02:59:16;;;;;;;193.82;55.55;;;;;;;-1.22;100.00;100121.44;8391589;28;20040;-73
2022/11/30 03:03:17;;;;;;;184.30;52.45;;;;;;;-1.29;100.00;100111.66;8426648;28;20517;-73
2022/11/30 03:07:18;;;;;;;191.98;52.97;;;;;;;-1.27;100.00;100108.00;8427378;28;20126;-74
2022/11/30 03:11:20;;;;;;;186.70;53.90;;;;;;;-1.29;100.00;100111.66;8427864;28;20051;-74
2022/11/30 03:15:21;;;;;;;207.57;56.22;;;;;;;-1.27;100.00;100127.38;8408893;28;20048;-74
2022/11/30 03:19:22;;;;;;;190.35;52.90;;;;;;;-1.27;100.00;100130.81;8426231;28;20137;-74
2022/11/30 03:23:23;;;;;;;196.65;48.53;;;;;;;-1.32;100.00;100133.28;8427080;28;20040;-74
2022/11/30 03:27:24;;;;;;;190.60;47.60;;;;;;;-1.29;100.00;100137.34;8426050;28;20062;-73
2022/11/30 03:31:25;;;;;;;174.02;49.03;;;;;;;-1.25;100.00;100143.03;8426381;28;20048;-74
2022/11/30 03:35:26;;;;;;;170.68;50.08;;;;;;;-1.25;100.00;100154.47;8424899;28;20036;-74
2022/11/30 03:39:26;;;;;;;163.88;49.35;;;;;;;-1.19;100.00;100158.13;8426471;28;20062;-74
2022/11/30 03:43:28;;;;;;;166.07;49.50;;;;;;;-1.14;100.00;100160.97;8426328;28;20060;-74
2022/11/30 03:47:29;;;;;;;158.45;45.95;;;;;;;-1.08;100.00;100160.16;8425901;28;20491;-74
2022/11/30 03:51:30;;;;;;;201.95;44.00;;;;;;;-1.12;100.00;100166.91;8426454;28;20044;-74
2022/11/30 03:55:31;;;;;;;138.57;41.45;;;;;;;-1.21;100.00;100155.69;8426101;28;20193;-74
2022/11/30 03:59:32;;;;;;;172.68;43.13;;;;;;;-1.20;100.00;100161.78;8426304;28;20048;-74
2022/11/30 04:03:34;;;;;;;207.45;41.28;;;;;;;-1.23;100.00;100172.81;8425397;28;20047;-74
2022/11/30 04:07:35;;;;;;;161.13;39.75;;;;;;;-1.20;100.00;100167.09;8425762;28;20055;-74
2022/11/30 04:11:35;;;;;;;169.88;39.50;;;;;;;-1.24;100.00;100171.19;8425091;28;20059;-74
2022/11/30 04:15:37;;;;;;;154.02;40.65;;;;;;;-1.15;100.00;100175.25;8425519;28;20090;-74
2022/11/30 04:19:37;;;;;;;131.18;41.35;;;;;;;-1.11;100.00;100176.47;8415836;28;20470;-74
2022/11/30 04:23:39;;;;;;;134.48;39.83;;;;;;;-1.09;100.00;100171.78;8426014;28;20062;-74
2022/11/30 04:27:40;;;;;;;152.60;40.17;;;;;;;-1.10;100.00;100172.78;8389793;28;20044;-74
2022/11/30 04:31:41;;;;;;;136.32;38.88;;;;;;;-1.09;100.00;100179.72;8425491;28;20434;-74
2022/11/30 04:35:46;;;;;;;209.95;38.03;;;;;;;-1.14;100.00;100192.78;8425078;28;20054;-74
2022/11/30 04:39:47;;;;;;;136.15;35.90;;;;;;;-1.17;100.00;100182.59;8410755;28;20052;-73
2022/11/30 04:43:48;;;;;;;183.70;38.83;;;;;;;-1.19;100.00;100189.94;8432533;28;20464;-73
2022/11/30 04:47:49;;;;;;;136.20;36.05;;;;;;;-1.15;100.00;100185.84;8432755;28;20055;-74
2022/11/30 04:51:50;;;;;;;146.35;38.03;;;;;;;-1.19;100.00;100184.63;8395320;28;20052;-74
2022/11/30 04:55:51;;;;;;;223.98;40.65;;;;;;;-1.31;100.00;100187.91;8432351;28;20063;-74
2022/11/30 04:59:52;;;;;;;134.27;37.08;;;;;;;-1.36;100.00;100185.06;8431516;28;20537;-75
2022/11/30 05:03:53;;;;;;;135.38;39.58;;;;;;;-1.34;100.00;100193.63;8431891;28;20275;-74
2022/11/30 05:07:56;;;;;;;137.88;37.13;;;;;;;-1.30;100.00;100189.53;8432745;28;20197;-75
2022/11/30 05:11:57;;;;;;;152.07;35.92;;;;;;;-1.35;100.00;100194.66;8432308;28;20044;-73
2022/11/30 05:15:57;;;;;;;151.18;37.42;;;;;;;-1.39;100.00;100193.44;8395717;28;20044;-74
2022/11/30 05:19:59;;;;;;;155.18;35.53;;;;;;;-1.43;100.00;100194.84;8432512;28;20044;-74
2022/11/30 05:24:00;;;;;;;142.38;37.22;;;;;;;-1.37;100.00;100199.31;8430723;28;20058;-73
2022/11/30 05:28:01;;;;;;;153.63;38.58;;;;;;;-1.27;100.00;100199.72;8438802;28;20044;-74
2022/11/30 05:32:02;;;;;;;133.77;38.65;;;;;;;-1.25;100.00;100206.66;8427171;28;20063;-74
2022/11/30 05:36:03;;;;;;;133.57;39.08;;;;;;;-1.21;100.00;100207.88;8429306;28;20044;-74
2022/11/30 05:40:05;;;;;;;138.32;38.40;;;;;;;-1.16;100.00;100210.75;8428287;28;20051;-74
2022/11/30 05:44:07;;;;;;;122.70;38.60;;;;;;;-1.18;100.00;100223.38;8385381;28;20044;-74
2022/11/30 05:48:08;;;;;;;161.90;40.80;;;;;;;-1.14;100.00;100214.00;8426723;28;20075;-74
2022/11/30 05:52:09;;;;;;;128.98;38.03;;;;;;;-1.18;100.00;100228.69;8418576;28;20059;-74
2022/11/30 05:56:12;;;;;;;149.52;38.85;;;;;;;-1.11;100.00;100224.19;8423207;28;20047;-74
2022/11/30 06:00:14;;;;;;;129.45;35.55;;;;;;;-1.16;100.00;100224.00;8426576;28;20033;-74
2022/11/30 06:04:17;;;;;;;131.13;38.30;;;;;;;-1.13;100.00;100231.53;8425533;28;20047;-74
2022/11/30 06:08:19;;;;;;;126.80;38.05;;;;;;;-1.10;100.00;100236.41;8421094;28;20075;-74
2022/11/30 06:12:20;;;;;;;130.30;36.17;;;;;;;-1.11;100.00;100240.88;8426539;28;20513;-74
2022/11/30 06:16:21;;;;;;;110.05;33.20;;;;;;;-1.10;100.00;100241.72;8425627;28;20052;-74
2022/11/30 06:20:22;;;;;;;116.95;32.65;;;;;;;-1.09;100.00;100248.66;8421769;28;20052;-74
2022/11/30 06:24:23;;;;;;;111.97;34.25;;;;;;;-1.12;100.00;100238.47;8419012;28;20453;-74
2022/11/30 06:28:24;;;;;;;108.57;33.35;;;;;;;-1.02;100.00;100239.69;8425060;28;20064;-75
2022/11/30 06:32:25;;;;;;;110.25;34.28;;;;;;;-1.04;100.00;100246.19;8426228;28;20111;-75
2022/11/30 06:36:28;;;;;;;120.10;34.80;;;;;;;-1.00;100.00;100242.09;8423275;28;20052;-74
2022/11/30 06:40:29;;;;;;;128.50;38.25;;;;;;;-0.89;100.00;100246.78;8421504;28;20055;-74
2022/11/30 06:44:30;;;;;;;109.93;33.30;;;;;;;-0.94;100.00;100259.84;8425274;28;20055;-74
2022/11/30 06:48:31;;;;;;;99.28;31.60;;;;;;;-0.94;100.00;100257.19;8422486;28;20044;-74
2022/11/30 06:52:32;;;;;;;109.75;35.40;;;;;;;-0.90;100.00;100264.53;8425844;28;20071;-74
2022/11/30 06:56:34;;;;;;;120.15;36.65;;;;;;;-0.88;100.00;100261.69;8374930;28;20052;-74
2022/11/30 07:00:35;;;;;;;112.93;33.75;;;;;;;-0.87;100.00;100264.13;8419408;28;20051;-74
2022/11/30 07:04:36;;;;;;;121.45;34.30;;;;;;;-0.95;100.00;100271.47;8409815;28;20058;-75
2022/11/30 07:08:38;;;;;;;113.43;35.08;;;;;;;-0.99;100.00;100278.22;8399155;28;20044;-75
2022/11/30 07:12:39;;;;;;;112.60;33.25;;;;;;;-1.07;100.00;100273.13;8413300;28;20494;-75
2022/11/30 07:16:40;;;;;;;122.10;36.22;;;;;;;-1.00;100.00;100279.22;8392139;28;20127;-74
2022/11/30 07:20:41;;;;;;;126.93;36.65;;;;;;;-0.96;100.00;100275.16;8427543;28;20051;-74
2022/11/30 07:29:04;;;;;;;120.22;34.42;;;;;;;-0.93;100.00;100290.66;8427946;28;20456;-75
2022/11/30 07:33:04;;;;;;;108.85;33.08;;;;;;;-0.84;100.00;100289.41;8427920;28;20052;-75
2022/11/30 07:37:05;;;;;;;115.75;36.85;;;;;;;-0.79;100.00;100297.56;8375186;28;20413;-74
2022/11/30 07:41:07;;;;;;;109.60;35.05;;;;;;;-0.78;100.00;100304.50;8426675;28;20044;-74
2022/11/30 07:45:08;;;;;;;111.35;34.40;;;;;;;-0.70;100.00;100301.66;8427305;28;20498;-74
2022/11/30 07:49:10;;;;;;;104.28;36.20;;;;;;;-0.78;100.00;100315.13;8422636;28;20044;-74
2022/11/30 07:53:11;;;;;;;101.97;35.30;;;;;;;-0.80;100.00;100311.88;8422403;28;20047;-73
2022/11/30 07:57:12;;;;;;;106.85;35.40;;;;;;;-0.88;100.00;100304.09;8427663;28;20039;-74
2022/11/30 08:01:15;;;;;;;108.13;35.08;;;;;;;-0.87;100.00;100311.06;8426546;28;20044;-75
2022/11/30 08:05:16;;;;;;;108.00;34.95;;;;;;;-0.83;100.00;100306.97;8414501;28;20059;-75
2022/11/30 08:09:17;;;;;;;109.85;36.92;;;;;;;-0.80;100.00;100306.56;8427394;28;20054;-74
2022/11/30 08:13:18;;;;;;;112.60;36.60;;;;;;;-0.65;100.00;100309.81;8427713;28;20055;-74
2022/11/30 08:17:19;;;;;;;112.75;35.88;;;;;;;-0.63;100.00;100307.75;8433855;28;20415;-74
2022/11/30 08:21:21;;;;;;;105.57;32.80;;;;;;;-0.59;100.00;100319.59;8433945;28;20047;-74
2022/11/30 08:25:21;;;;;;;113.65;36.05;;;;;;;-0.70;100.00;100322.88;8433860;28;20143;-74
2022/11/30 08:29:22;;;;;;;117.53;34.97;;;;;;;-0.69;100.00;100313.91;8421159;28;20498;-75
2022/11/30 08:33:23;;;;;;;117.05;39.05;;;;;;;-0.64;100.00;100316.75;8433693;28;20131;-74
2022/11/30 08:37:24;;;;;;;123.78;39.35;;;;;;;-0.68;100.00;100320.81;8429433;28;20049;-76
2022/11/30 08:41:25;;;;;;;134.13;40.85;;;;;;;-0.64;100.00;100316.75;8384316;28;20519;-74
2022/11/30 08:45:27;;;;;;;114.32;35.85;;;;;;;-0.74;100.00;100324.28;8419650;28;20063;-74
2022/11/30 08:49:28;;;;;;;118.00;36.58;;;;;;;-0.68;100.00;100320.81;8418889;28;20047;-75
2022/11/30 08:53:29;;;;;;;106.35;35.88;;;;;;;-0.63;100.00;100334.28;8432174;28;20048;-75
2022/11/30 08:57:30;;;;;;;113.38;35.92;;;;;;;-0.60;100.00;100323.28;8432931;28;20552;-74
2022/11/30 09:01:31;;;;;;;116.10;38.35;;;;;;;-0.52;100.00;100331.00;8432104;28;20055;-74
2022/11/30 09:05:32;;;;;;;136.77;44.47;;;;;;;-0.52;100.00;100346.91;8410707;28;20043;-74
2022/11/30 09:09:34;;;;;;;137.07;41.88;;;;;;;-0.40;100.00;100341.00;8394547;28;20460;-74
2022/11/30 09:13:34;;;;;;;142.05;40.47;;;;;;;-0.45;100.00;100336.31;8421212;28;20056;-75
2022/11/30 09:17:36;;;;;;;113.45;39.55;;;;;;;-0.39;100.00;100334.66;8418192;28;20055;-74
2022/11/30 09:21:37;;;;;;;99.65;34.53;;;;;;;-0.39;100.00;100334.66;8418884;28;20048;-74
2022/11/30 09:25:38;;;;;;;112.53;37.20;;;;;;;-0.47;100.00;100338.34;8429471;28;20052;-74
2022/11/30 09:29:39;;;;;;;109.50;36.85;;;;;;;-0.53;100.00;100334.66;8418974;28;20327;-74
2022/11/30 09:33:40;;;;;;;135.50;50.40;;;;;;;-0.61;100.00;100347.34;8431031;28;20046;-74
2022/11/30 09:37:43;;;;;;;114.70;39.35;;;;;;;-0.52;100.00;100341.63;8431513;28;20040;-74
2022/11/30 09:42:10;;;;;;;130.85;37.03;;;;;;;-0.53;100.00;100334.66;8418933;28;20405;-74
2022/11/30 09:46:12;;;;;;;111.97;36.53;;;;;;;-0.47;100.00;100349.78;8360765;28;20056;-74
2022/11/30 09:50:15;;;;;;;111.75;34.80;;;;;;;-0.38;100.00;100346.91;8360629;28;20049;-74
2022/11/30 09:54:21;;;;;;;118.88;38.63;;;;;;;-0.42;100.00;100349.97;8360618;28;20048;-74
2022/11/30 09:58:29;;;;;;;110.55;39.20;;;;;;;-0.40;100.00;100343.63;8293983;28;20046;-74
2022/11/30 10:02:33;;;;;;;101.00;35.28;;;;;;;-0.29;100.00;100350.97;8277550;28;20070;-73
2022/11/30 10:07:04;;;;;;;109.03;37.78;;;;;;;-0.25;100.00;100357.50;8274120;28;20058;-74
2022/11/30 10:11:18;;;;;;;100.97;32.47;;;;;;;-0.37;100.00;100353.84;8163582;28;20130;-75
2022/11/30 10:15:26;;;;;;;91.30;32.63;;;;;;;-0.55;100.00;100347.34;8140740;28;20529;-73
2022/11/30 10:19:27;;;;;;;;;;;;;;;-0.58;100.00;100346.94;8145655;29;20051;-74
2022/11/30 10:23:57;;;;;;;97.18;33.47;;;;;;;-0.47;100.00;100349.78;8166577;29;19977;-73
2022/11/30 10:28:17;;;;;;;96.20;31.90;;;;;;;-0.38;100.00;100341.59;8175225;28;20481;-73
2022/11/30 10:32:21;;;;;;;92.72;31.92;;;;;;;-0.34;100.00;100342.81;8261395;28;20133;-73
2022/11/30 10:36:28;;;;;;;93.43;32.67;;;;;;;-0.26;100.00;100339.91;8244074;28;20404;-73
2022/11/30 10:41:00;;;;;;;121.80;40.60;;;;;;;-0.29;100.00;100341.16;8216528;28;20061;-73
2022/11/30 10:45:05;;;;;;;106.68;35.13;;;;;;;-0.25;100.00;100346.88;8197144;28;20078;-74
2022/11/30 10:49:11;;;;;;;118.07;38.72;;;;;;;-0.18;100.00;100343.19;8276746;28;20049;-73
2022/11/30 10:53:13;;;;;;;104.50;35.90;;;;;;;-0.17;100.00;100344.00;8277249;28;20053;-74
2022/11/30 10:57:14;;;;;;;102.57;34.85;;;;;;;-0.24;100.00;100345.84;8293502;28;20157;-73
2022/11/30 11:01:41;;;;;;;105.57;35.58;;;;;;;-0.45;100.00;100353.03;8292788;28;20048;-74
2022/11/30 11:05:43;;;;;;;108.18;35.55;;;;;;;-0.28;100.00;100357.91;8277101;28;20131;-75
2022/11/30 11:09:49;;;;;;;93.72;31.92;;;;;;;-0.26;100.00;100361.16;8292794;28;20053;-73
2022/11/30 11:13:50;;;;;;;92.57;33.25;;;;;;;-0.21;100.00;100359.50;8293337;28;20579;-73
2022/11/30 11:17:52;;;;;;;94.45;34.30;;;;;;;-0.22;100.00;100357.09;8292757;28;20142;-73
2022/11/30 11:21:53;;;;;;;88.20;31.63;;;;;;;-0.12;100.00;100360.13;8353873;28;20044;-73
2022/11/30 11:25:56;;;;;;;101.65;33.50;;;;;;;-0.12;100.00;100352.16;8428700;28;20545;-73
2022/11/30 11:30:01;;;;;;;105.68;35.85;;;;;;;-0.08;100.00;100348.06;8428817;28;20040;-73
2022/11/30 11:34:04;;;;;;;107.68;40.08;;;;;;;-0.09;100.00;100343.75;8428185;28;20097;-73
2022/11/30 11:38:26;;;;;;;110.13;37.63;;;;;;;-0.02;100.00;100347.22;8428276;28;20044;-73
2022/11/30 11:42:30;;;;;;;115.38;38.45;;;;;;;-0.03;100.00;100345.59;8410511;28;20070;-73
2022/11/30 11:46:35;;;;;;;111.20;37.63;;;;;;;-0.01;100.00;100343.56;8392929;28;20036;-73
2022/11/30 11:50:37;;;;;;;112.68;38.50;;;;;;;0.01;100.00;100346.78;8414117;28;20303;-75
2022/11/30 11:54:55;;;;;;;133.05;44.65;;;;;;;0.03;100.00;100336.78;8391699;28;20036;-73
2022/11/30 11:59:08;;;;;;;107.97;37.88;;;;;;;0.01;100.00;100344.13;8386278;28;20062;-74
2022/11/30 12:03:30;;;;;;;115.32;38.50;;;;;;;0.07;100.00;100345.97;8407281;28;20098;-73
2022/11/30 12:07:59;;;;;;;103.90;37.40;;;;;;;0.03;100.00;100344.75;8407316;28;20052;-74
2022/11/30 12:12:00;;;;;;;105.77;34.07;;;;;;;0.07;100.00;100345.97;8409104;28;20097;-74
2022/11/30 12:16:18;;;;;;;113.38;37.88;;;;;;;0.04;100.00;100351.69;8426169;28;20070;-75
2022/11/30 12:20:24;;;;;;;122.38;43.58;;;;;;;0.00;100.00;100355.81;8361228;28;20048;-74
2022/11/30 12:24:40;;;;;;;129.02;46.97;;;;;;;0.09;100.00;100349.22;8409542;28;20048;-73
2022/11/30 12:28:56;;;;;;;119.93;42.97;;;;;;;0.14;100.00;100361.88;8427693;28;20090;-73
2022/11/30 12:33:26;;;;;;;107.82;38.67;;;;;;;0.13;100.00;100355.75;8403577;28;20056;-74
2022/11/30 12:37:33;;;;;;;;;;;;;;;0.03;100.00;100354.56;8426420;28;20047;-74
2022/11/30 12:41:41;;;;;;;119.25;40.33;;;;;;;0.01;100.00;100362.72;8427277;28;20003;-73
2022/11/30 12:45:43;;;;;;;;;;;;;;;-0.09;100.00;100362.34;8407998;28;20064;-75
2022/11/30 12:50:07;;;;;;;119.45;42.45;;;;;;;-0.04;100.00;100365.19;8427280;28;19966;-75
2022/11/30 12:54:20;;;;;;;174.48;61.22;;;;;;;-0.03;100.00;100361.53;8378321;28;20090;-74
2022/11/30 12:58:41;;;;;;;125.38;42.72;;;;;;;0.06;100.00;100354.94;8428434;28;20456;-74
2022/11/30 13:03:18;;;;;;;162.68;54.10;;;;;;;0.04;100.00;100357.00;8434184;28;20040;-73
2022/11/30 13:07:49;;;;;;;138.35;49.47;;;;;;;-0.02;100.00;100363.16;8420493;28;20470;-73
2022/11/30 13:12:11;;;;;;;131.30;47.40;;;;;;;0.06;100.00;100354.94;8404332;28;20052;-73
2022/11/30 13:16:14;;;;;;;154.85;55.63;;;;;;;0.04;100.00;100367.63;8363683;28;20492;-74
2022/11/30 13:20:47;;;;;;;119.65;44.28;;;;;;;0.03;100.00;100366.00;8345959;28;20136;-73
2022/11/30 13:25:01;;;;;;;124.88;45.05;;;;;;;0.01;100.00;100357.41;8322514;28;20048;-74
2022/11/30 13:29:35;;;;;;;107.35;38.25;;;;;;;-0.03;100.00;100353.56;8365203;28;20048;-74
2022/11/30 13:33:44;;;;;;;119.30;42.50;;;;;;;-0.01;100.00;100359.47;8245343;28;20050;-74
2022/11/30 13:38:02;;;;;;;116.22;41.85;;;;;;;-0.06;100.00;100361.94;8232306;28;20094;-74
2022/11/30 13:42:06;;;;;;;;;;;;;;;-0.05;100.00;100363.56;8264790;28;20528;-73
2022/11/30 13:46:11;;;;;;;131.73;48.35;;;;;;;-0.21;100.00;100356.88;8264452;28;19944;-74
2022/11/30 13:50:31;;;;;;;130.35;49.70;;;;;;;-0.27;100.00;100359.56;8263755;28;20042;-73
2022/11/30 13:54:49;;;;;;;115.40;41.97;;;;;;;-0.25;100.00;100362.78;8264318;28;20061;-74
2022/11/30 13:59:22;;;;;;;117.40;42.97;;;;;;;-0.18;100.00;100363.59;8252637;28;20416;-74
2022/11/30 14:03:27;;;;;;;128.10;46.83;;;;;;;-0.16;100.00;100370.31;8262970;28;20057;-73
2022/11/30 14:07:37;;;;;;;125.30;45.25;;;;;;;-0.12;100.00;100362.78;8263768;28;20410;-73
2022/11/30 14:11:41;;;;;;;129.75;45.65;;;;;;;-0.11;100.00;100359.09;8431133;28;20102;-75
2022/11/30 14:15:42;;;;;;;135.18;46.13;;;;;;;-0.11;100.00;100364.41;8397398;28;20048;-74
2022/11/30 14:19:50;;;;;;;122.20;45.58;;;;;;;-0.13;100.00;100371.75;8431405;28;20075;-74
2022/11/30 14:24:12;;;;;;;117.45;42.97;;;;;;;-0.16;100.00;100377.50;8412748;28;20489;-73
2022/11/30 14:28:17;;;;;;;118.15;42.67;;;;;;;-0.14;100.00;100370.94;8412731;28;20044;-74
2022/11/30 14:32:34;;;;;;;112.80;42.67;;;;;;;-0.18;100.00;100374.22;8414181;28;20043;-74
2022/11/30 14:36:40;;;;;;;105.07;42.50;;;;;;;-0.24;100.00;100364.44;8382809;28;20064;-73
2022/11/30 14:40:52;;;;;;;105.70;37.28;;;;;;;-0.21;100.00;100369.34;8431432;28;20131;-74
2022/11/30 14:44:54;;;;;;;111.25;43.08;;;;;;;-0.21;100.00;100374.66;8432406;28;20062;-74
2022/11/30 14:49:16;;;;;;;111.30;42.00;;;;;;;-0.25;100.00;100379.53;8396353;28;20417;-74
2022/11/30 14:53:36;;;;;;;121.55;44.90;;;;;;;-0.25;100.00;100379.53;8431415;28;20040;-74
2022/11/30 14:58:12;;;;;;;117.20;42.17;;;;;;;-0.31;100.00;100379.56;8431274;28;20104;-75
2022/11/30 15:02:33;;;;;;;111.18;42.53;;;;;;;-0.33;100.00;100382.44;8278234;28;20061;-74
2022/11/30 15:06:37;;;;;;;119.05;48.90;;;;;;;-0.28;100.00;100384.47;8261743;28;20531;-73
2022/11/30 15:10:40;;;;;;;114.80;45.30;;;;;;;-0.37;100.00;100396.31;8197951;28;20047;-76
2022/11/30 15:15:12;;;;;;;115.28;44.60;;;;;;;-0.35;100.00;100378.34;8134595;29;20514;-73
2022/11/30 15:19:45;;;;;;;107.55;43.20;;;;;;;-0.35;100.00;100383.66;8121069;29;20443;-74
2022/11/30 15:23:47;;;;;;;106.10;41.03;;;;;;;-0.29;100.00;100383.66;8012596;29;20050;-74
2022/11/30 15:27:50;;;;;;;114.25;43.00;;;;;;;-0.29;100.00;100388.13;8042565;29;20053;-73
2022/11/30 15:31:54;;;;;;;132.60;49.83;;;;;;;-0.30;100.00;100386.50;8003848;29;20073;-74
2022/11/30 15:36:03;;;;;;;128.13;48.05;;;;;;;-0.22;100.00;100383.63;8044746;29;20508;-74
2022/11/30 15:40:05;;;;;;;133.82;53.72;;;;;;;-0.24;100.00;100390.97;8103096;29;20052;-74
2022/11/30 15:44:22;;;;;;;144.57;57.65;;;;;;;-0.31;100.00;100390.16;8075559;29;20053;-76
2022/11/30 15:48:47;;;;;;;110.15;42.72;;;;;;;-0.29;100.00;100396.09;8096452;29;20056;-74
2022/11/30 15:52:50;;;;;;;114.00;45.25;;;;;;;-0.42;100.00;100400.38;8215981;28;20073;-74
2022/11/30 15:56:55;;;;;;;108.32;40.80;;;;;;;-0.32;100.00;100393.88;8244663;28;20121;-75
2022/11/30 16:01:10;;;;;;;103.63;41.17;;;;;;;-0.34;100.00;100395.91;8343713;28;20132;-74
2022/11/30 16:05:11;;;;;;;105.72;41.88;;;;;;;-0.25;100.00;100394.66;8363577;28;20487;-74
2022/11/30 16:09:20;;;;;;;98.65;38.33;;;;;;;-0.27;100.00;100396.72;8363251;28;20045;-75
2022/11/30 16:13:22;;;;;;;101.15;41.30;;;;;;;-0.32;100.00;100393.88;8352012;28;20171;-74
2022/11/30 16:17:23;;;;;;;102.75;41.38;;;;;;;-0.45;100.00;100411.44;8359776;28;20049;-75
2022/11/30 16:21:24;;;;;;;98.80;40.20;;;;;;;-0.43;100.00;100404.09;8324086;28;20065;-73
2022/11/30 16:25:25;;;;;;;93.93;37.85;;;;;;;-0.35;100.00;100410.19;8357050;28;20106;-74
2022/11/30 16:29:26;;;;;;;92.97;37.63;;;;;;;-0.33;100.00;100408.16;8362577;28;20442;-75
2022/11/30 16:33:27;;;;;;;101.93;39.08;;;;;;;-0.30;100.00;100402.44;8363149;28;20037;-74
2022/11/30 16:37:28;;;;;;;120.70;49.65;;;;;;;-0.28;100.00;100411.00;8369102;28;20063;-74
2022/11/30 16:41:30;;;;;;;103.13;41.25;;;;;;;-0.29;100.00;100406.72;8370167;28;20056;-75
2022/11/30 16:45:35;;;;;;;98.38;41.22;;;;;;;-0.26;100.00;100408.94;8373972;28;20577;-76
2022/11/30 16:49:37;;;;;;;104.57;42.55;;;;;;;-0.25;100.00;100410.59;8309086;28;20127;-75
2022/11/30 16:53:38;;;;;;;96.47;39.45;;;;;;;-0.24;100.00;100417.53;8378516;28;20045;-75
2022/11/30 16:57:39;;;;;;;103.38;41.60;;;;;;;-0.25;100.00;100416.72;8386106;28;20060;-75
2022/11/30 17:01:46;;;;;;;95.30;39.35;;;;;;;-0.23;100.00;100421.81;8328110;28;20118;-77
2022/11/30 17:05:47;;;;;;;104.15;40.85;;;;;;;-0.25;100.00;100423.84;8373637;28;20041;-76
2022/11/30 17:09:48;;;;;;;99.50;39.47;;;;;;;-0.29;100.00;100425.31;8390338;28;20041;-76
2022/11/30 17:13:49;;;;;;;98.68;40.22;;;;;;;-0.32;100.00;100436.34;8378001;28;20097;-74
2022/11/30 17:17:51;;;;;;;88.80;35.20;;;;;;;-0.32;100.00;100431.03;8383622;28;20099;-74
2022/11/30 17:21:53;;;;;;;88.20;38.85;;;;;;;-0.30;100.00;100434.28;8371470;28;20448;-75
2022/11/30 17:25:55;;;;;;;94.43;37.50;;;;;;;-0.32;100.00;100439.00;8402069;28;20074;-75
2022/11/30 17:29:56;;;;;;;96.72;39.08;;;;;;;-0.31;100.00;100432.63;8403960;28;20136;-74
2022/11/30 17:33:57;;;;;;;112.32;44.95;;;;;;;-0.35;100.00;100447.34;8378990;28;20044;-74
2022/11/30 17:37:58;;;;;;;116.07;44.58;;;;;;;-0.31;100.00;100443.25;8403464;28;20105;-75
2022/11/30 17:41:59;;;;;;;103.55;39.65;;;;;;;-0.30;100.00;100439.59;8402939;28;20482;-75
2022/11/30 17:46:09;;;;;;;120.55;48.67;;;;;;;-0.32;100.00;100441.66;8399757;28;20059;-75
2022/11/30 17:50:11;;;;;;;101.65;39.50;;;;;;;-0.34;100.00;100449.00;8402030;28;20048;-76
2022/11/30 17:54:12;;;;;;;111.20;43.00;;;;;;;-0.36;100.00;100456.34;8401734;28;20070;-75
2022/11/30 17:58:13;;;;;;;120.25;42.85;;;;;;;-0.37;100.00;100454.72;8399597;28;20056;-74
2022/11/30 18:02:14;;;;;;;109.60;41.22;;;;;;;-0.35;100.00;100457.97;8386691;28;20052;-75
2022/11/30 18:06:16;;;;;;;102.03;38.53;;;;;;;-0.33;100.00;100455.94;8400575;28;20053;-74
2022/11/30 18:10:17;;;;;;;100.53;39.08;;;;;;;-0.34;99.86;100465.72;8381449;28;20045;-75
2022/11/30 18:14:18;;;;;;;95.72;37.63;;;;;;;-0.37;100.00;100460.03;8362969;28;20056;-76
2022/11/30 18:18:20;;;;;;;98.63;40.38;;;;;;;-0.34;100.00;100464.91;8362397;28;20045;-74